Time;durP1;ratioP1;P1;durP2;ratioP2;P2;SDS_P1;SDS_P2;PMS_P1;PMS_P2;Temp;Humidity;BMP_temperature;BMP_pressure;BME280_temperature;BME280_humidity;BME280_pressure;Samples;Min_cycle;Max_cycle;Signal;HPM_P1;HPM_P2
2022/12/08 00:01:16;;;;;;;15.07;10.73;;;;;;;3.56;72.33;96245.94;5095237;28;20048;-81
2022/12/08 00:03:44;;;;;;;16.38;11.07;;;;;;;3.57;72.81;96245.00;5094960;28;20134;-80
2022/12/08 00:09:21;;;;;;;18.00;11.52;;;;;;;3.56;71.86;96242.56;5094338;28;20044;-80
2022/12/08 00:11:55;;;;;;;16.48;11.15;;;;;;;3.52;71.38;96239.47;5095047;28;20445;-81
2022/12/08 00:14:26;;;;;;;15.32;10.80;;;;;;;3.50;70.65;96238.81;5094722;28;20048;-80
2022/12/08 00:16:54;;;;;;;16.38;10.98;;;;;;;3.44;71.65;96229.88;5094759;28;20429;-80
2022/12/08 00:19:22;;;;;;;17.92;10.73;;;;;;;3.42;70.98;96233.56;5094702;28;20040;-81
2022/12/08 00:21:50;;;;;;;15.32;10.00;;;;;;;3.39;71.33;96237.25;5094587;28;20054;-80
2022/12/08 00:24:18;;;;;;;13.27;9.90;;;;;;;3.38;71.53;96229.66;5094345;28;20545;-80
2022/12/08 00:26:46;;;;;;;16.42;10.15;;;;;;;3.34;70.98;96230.91;5094435;28;20497;-80
2022/12/08 00:29:14;;;;;;;14.55;9.55;;;;;;;3.27;70.59;96230.66;5094653;28;20048;-80
2022/12/08 00:31:45;;;;;;;13.57;10.10;;;;;;;3.21;71.68;96229.47;5094447;28;20044;-80
2022/12/08 00:34:13;;;;;;;14.02;10.13;;;;;;;3.18;71.96;96224.63;5094086;28;20058;-80
2022/12/08 00:36:41;;;;;;;14.30;9.82;;;;;;;3.20;71.83;96229.63;5094240;28;20056;-81
2022/12/08 00:39:09;;;;;;;16.48;11.30;;;;;;;3.19;71.26;96220.28;5093773;28;20040;-80
2022/12/08 00:44:21;;;;;;;16.05;11.57;;;;;;;3.12;70.58;96214.09;5094116;28;20429;-80
2022/12/08 00:46:50;;;;;;;14.40;10.43;;;;;;;3.12;71.33;96216.66;5094028;28;20060;-80
2022/12/08 00:49:18;;;;;;;14.98;10.32;;;;;;;3.09;70.63;96213.41;5093997;28;20040;-80
2022/12/08 00:51:46;;;;;;;15.45;10.40;;;;;;;3.02;70.02;96214.94;5093989;28;20048;-80
2022/12/08 00:54:13;;;;;;;16.85;11.80;;;;;;;2.97;70.09;96209.41;5093935;28;20051;-81
2022/12/08 00:56:41;;;;;;;16.02;10.65;;;;;;;2.91;70.19;96209.16;5093608;28;20048;-80
2022/12/08 00:59:09;;;;;;;18.02;11.63;;;;;;;2.83;70.31;96208.13;5093380;28;20048;-80
2022/12/08 01:01:36;;;;;;;15.93;9.98;;;;;;;2.83;70.52;96202.16;5093724;28;20054;-81
2022/12/08 01:04:06;;;;;;;15.75;10.05;;;;;;;2.81;70.37;96201.50;5093819;28;20143;-80
2022/12/08 01:06:34;;;;;;;16.77;11.07;;;;;;;2.76;70.53;96204.50;5093466;28;20059;-80
2022/12/08 01:09:02;;;;;;;18.48;11.32;;;;;;;2.72;70.21;96202.34;5093357;28;20059;-80
2022/12/08 01:11:30;;;;;;;18.38;10.30;;;;;;;2.66;70.69;96199.38;5114861;22;20040;-75
2022/12/08 01:13:57;;;;;;;17.42;11.30;;;;;;;2.62;71.13;96198.06;5093219;28;20060;-76
2022/12/08 01:16:27;;;;;;;17.10;11.02;;;;;;;2.61;70.88;96199.00;5093696;28;20054;-75
2022/12/08 01:18:56;;;;;;;18.52;12.07;;;;;;;2.58;70.38;96201.03;5093214;28;20055;-76
2022/12/08 01:21:25;;;;;;;16.90;10.40;;;;;;;2.55;71.07;96202.13;5093447;28;20079;-76
2022/12/08 01:23:53;;;;;;;17.58;10.65;;;;;;;2.54;70.86;96200.53;5093305;28;20048;-76
2022/12/08 01:26:21;;;;;;;17.63;12.05;;;;;;;2.52;70.43;96196.47;5093133;28;20373;-76
2022/12/08 01:28:49;;;;;;;20.65;12.70;;;;;;;2.48;70.50;96196.75;5093098;28;20521;-76
2022/12/08 01:31:19;;;;;;;19.33;13.70;;;;;;;2.46;70.71;96203.00;5093171;28;20128;-76
2022/12/08 01:33:48;;;;;;;20.50;14.30;;;;;;;2.43;70.69;96198.13;5093627;28;20093;-76
2022/12/08 01:36:20;;;;;;;18.20;12.38;;;;;;;2.39;70.79;96196.78;5093563;28;20059;-75
2022/12/08 01:38:50;;;;;;;21.15;13.45;;;;;;;2.34;71.03;96198.97;5107692;28;20056;-76
2022/12/08 01:41:19;;;;;;;18.48;12.80;;;;;;;2.30;71.01;96193.28;5105088;28;20043;-75
2022/12/08 01:43:59;;;;;;;18.60;12.15;;;;;;;2.29;71.27;96194.22;5113374;28;20052;-75
2022/12/08 01:46:28;;;;;;;18.83;11.40;;;;;;;2.29;71.49;96196.00;5098840;28;20060;-76
2022/12/08 01:49:03;;;;;;;18.90;12.13;;;;;;;2.26;71.74;96191.94;5093869;28;20497;-76
2022/12/08 01:51:33;;;;;;;18.23;11.15;;;;;;;2.23;71.59;96187.06;5093480;28;20047;-76
2022/12/08 01:54:03;;;;;;;15.48;11.02;;;;;;;2.25;72.83;96190.31;5094014;28;20463;-76
2022/12/08 01:56:37;;;;;;;18.27;11.98;;;;;;;2.32;72.29;96191.41;5093389;28;20058;-76
2022/12/08 01:59:06;;;;;;;16.30;11.50;;;;;;;2.34;72.67;96189.50;5093005;28;20062;-76
2022/12/08 02:01:33;;;;;;;19.27;12.57;;;;;;;2.35;72.86;96191.09;5092782;28;20040;-76
2022/12/08 02:04:03;;;;;;;17.45;10.93;;;;;;;2.40;73.44;96191.47;5093123;28;20196;-76
2022/12/08 02:06:35;;;;;;;18.75;11.82;;;;;;;2.42;73.10;96192.16;5093022;28;20047;-76
2022/12/08 02:09:05;;;;;;;17.83;11.93;;;;;;;2.44;73.25;96190.25;5092857;28;20048;-75
2022/12/08 02:11:33;;;;;;;16.42;10.77;;;;;;;2.44;72.65;96185.09;5092838;28;20448;-76
2022/12/08 02:14:03;;;;;;;17.50;11.40;;;;;;;2.44;72.90;96177.38;5092931;28;20048;-75
2022/12/08 02:16:38;;;;;;;20.80;13.05;;;;;;;2.44;72.26;96179.97;5104042;28;20052;-76
2022/12/08 02:19:27;;;;;;;17.33;11.32;;;;;;;2.44;73.79;96174.81;5111396;28;20120;-75
2022/12/08 02:22:04;;;;;;;18.42;11.88;;;;;;;2.44;73.91;96168.84;5107129;28;20075;-75
2022/12/08 02:24:39;;;;;;;16.02;10.95;;;;;;;2.40;74.42;96168.31;5092857;28;20517;-76
2022/12/08 02:27:40;;;;;;;16.98;11.02;;;;;;;2.37;74.26;96168.63;5093248;28;20048;-75
2022/12/08 02:30:25;;;;;;;18.17;12.65;;;;;;;2.37;74.00;96163.47;5077780;28;20048;-76
2022/12/08 02:33:26;;;;;;;20.67;12.18;;;;;;;2.36;73.93;96167.00;5091299;28;20486;-75
2022/12/08 02:35:59;;;;;;;20.90;12.57;;;;;;;2.36;72.79;96156.72;5092462;28;20052;-76
2022/12/08 02:38:31;;;;;;;;;;;;;;;2.36;72.94;96156.72;5093451;28;20056;-75
2022/12/08 02:41:06;;;;;;;17.85;12.07;;;;;;;2.28;71.97;96148.88;5092567;28;19920;-76
2022/12/08 02:43:42;;;;;;;18.55;11.38;;;;;;;2.20;71.75;96144.41;5092591;28;20055;-76
2022/12/08 02:46:13;;;;;;;16.77;11.65;;;;;;;2.15;71.56;96148.38;5092583;28;20581;-75
2022/12/08 02:48:42;;;;;;;16.70;11.13;;;;;;;2.11;71.14;96147.84;5092086;28;20509;-76
2022/12/08 02:51:11;;;;;;;16.00;10.60;;;;;;;2.08;71.49;96142.16;5092721;28;20048;-75
2022/12/08 02:53:39;;;;;;;16.63;10.70;;;;;;;2.02;70.83;96141.78;5095907;28;20044;-76
2022/12/08 02:56:22;;;;;;;17.30;11.18;;;;;;;1.97;71.15;96143.97;5096225;28;20062;-76
2022/12/08 02:59:12;;;;;;;18.17;11.35;;;;;;;1.96;71.21;96144.09;5095824;28;20048;-76
2022/12/08 03:01:53;;;;;;;15.57;10.27;;;;;;;1.93;70.70;96136.66;5085704;28;20048;-76
2022/12/08 03:04:33;;;;;;;19.05;11.88;;;;;;;1.88;70.69;96139.66;5097280;28;20131;-75
2022/12/08 03:07:06;;;;;;;17.33;11.10;;;;;;;1.85;71.74;96135.56;5096964;28;20048;-75
2022/12/08 03:09:39;;;;;;;23.20;13.00;;;;;;;1.88;73.33;96126.78;5096496;28;20044;-76
2022/12/08 03:12:16;;;;;;;23.75;13.73;;;;;;;1.94;73.97;96127.97;5095879;28;20040;-76
2022/12/08 03:14:49;;;;;;;19.45;12.15;;;;;;;1.93;73.23;96124.59;5099840;28;20082;-74
2022/12/08 03:17:18;;;;;;;21.58;11.90;;;;;;;1.97;72.97;96131.09;5118212;28;20386;-75
2022/12/08 03:19:48;;;;;;;18.58;11.73;;;;;;;2.01;72.06;96137.59;5118411;28;20048;-75
2022/12/08 03:22:23;;;;;;;25.02;14.43;;;;;;;2.02;73.41;96136.63;5099541;28;20506;-75
2022/12/08 03:24:51;;;;;;;36.63;18.13;;;;;;;2.06;73.18;96135.41;5096072;28;20055;-75
2022/12/08 03:27:22;;;;;;;34.83;18.67;;;;;;;2.08;73.21;96130.13;5095930;28;20044;-75
2022/12/08 03:29:53;;;;;;;33.72;17.92;;;;;;;2.11;73.96;96126.44;5095812;28;20071;-76
2022/12/08 03:32:27;;;;;;;24.98;14.65;;;;;;;2.14;74.70;96126.16;5095360;28;20052;-76
2022/12/08 03:34:56;;;;;;;21.75;13.63;;;;;;;2.16;74.41;96127.63;5095434;28;20488;-75
2022/12/08 03:37:27;;;;;;;21.52;13.43;;;;;;;2.21;74.51;96122.09;5095086;28;20063;-76
2022/12/08 03:39:55;;;;;;;20.98;12.27;;;;;;;2.18;73.61;96117.22;5095256;28;20051;-75
2022/12/08 03:42:22;;;;;;;19.42;13.00;;;;;;;2.16;73.56;96106.25;5095151;28;20425;-74
2022/12/08 03:44:50;;;;;;;17.48;11.15;;;;;;;2.13;72.56;96098.81;5095338;28;20051;-76
2022/12/08 03:47:17;;;;;;;14.73;10.25;;;;;;;2.09;72.32;96097.47;5095391;28;20048;-75
2022/12/08 03:49:45;;;;;;;16.33;9.80;;;;;;;2.08;72.92;96106.13;5095223;28;20048;-76
2022/12/08 03:52:12;;;;;;;20.10;11.38;;;;;;;2.10;72.96;96096.50;5094525;28;20048;-75
2022/12/08 03:54:41;;;;;;;16.95;10.57;;;;;;;2.10;73.11;96099.09;5094914;28;20052;-76
2022/12/08 03:57:09;;;;;;;22.23;13.07;;;;;;;2.15;73.68;96102.88;5095062;28;20052;-75
2022/12/08 03:59:36;;;;;;;22.38;12.55;;;;;;;2.22;73.82;96103.13;5094482;28;20500;-75
2022/12/08 04:02:04;;;;;;;22.88;13.88;;;;;;;2.25;73.35;96090.78;5094434;28;20093;-75
2022/12/08 04:04:32;;;;;;;18.67;12.18;;;;;;;2.26;72.92;96101.88;5094517;28;20048;-76
2022/12/08 04:06:59;;;;;;;18.95;13.55;;;;;;;2.21;72.43;96099.72;5094697;28;20044;-75
2022/12/08 04:09:27;;;;;;;18.08;12.10;;;;;;;2.25;73.77;96097.66;5094592;28;20101;-75
2022/12/08 04:11:56;;;;;;;17.38;12.07;;;;;;;2.29;73.31;96096.44;5094392;28;20055;-76
2022/12/08 04:14:23;;;;;;;19.38;11.50;;;;;;;2.30;73.58;96090.34;5094610;28;20052;-75
2022/12/08 04:16:51;;;;;;;17.50;11.93;;;;;;;2.29;73.08;96093.84;5095389;28;20494;-75
2022/12/08 04:19:18;;;;;;;16.05;11.30;;;;;;;2.25;73.06;96088.22;5113246;28;20048;-74
2022/12/08 04:21:46;;;;;;;16.60;11.07;;;;;;;2.26;73.08;96089.00;5115919;28;20074;-75
2022/12/08 04:24:13;;;;;;;15.30;9.95;;;;;;;2.28;72.51;96087.09;5106456;28;20117;-75
2022/12/08 04:26:41;;;;;;;12.65;9.23;;;;;;;2.28;71.78;96076.81;5095204;28;20060;-76
2022/12/08 04:29:10;;;;;;;15.50;9.15;;;;;;;2.28;71.99;96076.81;5094234;28;20411;-76
2022/12/08 04:31:37;;;;;;;13.65;9.95;;;;;;;2.26;71.40;96074.38;5095415;28;20093;-75
2022/12/08 04:34:05;;;;;;;14.45;8.68;;;;;;;2.24;71.53;96075.47;5095400;28;20275;-75
2022/12/08 04:36:33;;;;;;;16.35;10.02;;;;;;;2.19;71.46;96078.47;5093871;28;20498;-76
2022/12/08 04:39:00;;;;;;;15.52;10.63;;;;;;;2.16;71.17;96083.09;5093729;28;20073;-75
2022/12/08 04:41:28;;;;;;;13.90;9.35;;;;;;;2.10;71.67;96083.66;5094154;28;20044;-75
2022/12/08 04:43:55;;;;;;;15.23;10.05;;;;;;;2.09;71.43;96087.19;5093884;28;20421;-75
2022/12/08 04:46:24;;;;;;;16.45;10.05;;;;;;;2.06;72.08;96086.50;5093869;28;20048;-76
2022/12/08 04:48:52;;;;;;;14.32;10.70;;;;;;;2.03;72.12;96084.25;5093771;28;20044;-75
2022/12/08 04:51:20;;;;;;;15.13;10.23;;;;;;;2.07;72.65;96089.91;5093709;28;20048;-75
2022/12/08 04:53:48;;;;;;;13.70;9.63;;;;;;;2.14;73.45;96079.84;5094118;28;20044;-76
2022/12/08 04:56:17;;;;;;;17.42;9.77;;;;;;;2.23;73.91;96078.97;5094034;28;20048;-76
2022/12/08 04:58:45;;;;;;;15.27;10.55;;;;;;;2.34;74.17;96078.00;5093315;28;20048;-75
2022/12/08 05:01:14;;;;;;;16.52;10.50;;;;;;;2.41;74.90;96081.63;5093756;28;20588;-76
2022/12/08 05:03:43;;;;;;;20.50;11.45;;;;;;;2.50;74.95;96080.75;5093588;28;20101;-76
2022/12/08 05:06:13;;;;;;;19.02;11.55;;;;;;;2.57;75.85;96068.13;5093898;28;20059;-75
2022/12/08 05:08:41;;;;;;;16.92;11.25;;;;;;;2.64;75.29;96069.16;5093365;28;20044;-75
2022/12/08 05:11:11;;;;;;;17.95;10.82;;;;;;;2.63;73.82;96067.53;5093379;28;20056;-75
2022/12/08 05:13:38;;;;;;;17.35;10.80;;;;;;;2.62;73.53;96073.63;5093190;28;20079;-75
2022/12/08 05:16:09;;;;;;;18.13;10.27;;;;;;;2.57;72.55;96065.53;5093388;28;20052;-76
2022/12/08 05:18:37;;;;;;;17.02;10.93;;;;;;;2.52;72.93;96067.75;5093586;28;20126;-75
2022/12/08 05:21:07;;;;;;;13.63;9.98;;;;;;;2.47;73.72;96071.56;5093678;28;20452;-76
2022/12/08 05:23:35;;;;;;;16.90;11.13;;;;;;;2.48;73.81;96062.06;5093892;28;20055;-75
2022/12/08 05:26:03;;;;;;;17.90;11.13;;;;;;;2.53;73.11;96069.34;5112774;28;20040;-74
2022/12/08 05:28:30;;;;;;;15.20;10.13;;;;;;;2.53;73.26;96064.22;5116316;28;20099;-75
2022/12/08 05:31:09;;;;;;;16.48;11.20;;;;;;;2.55;74.03;96063.09;5107483;28;20048;-76
2022/12/08 05:33:36;;;;;;;17.38;9.90;;;;;;;2.58;73.10;96062.00;5095869;28;20048;-75
2022/12/08 05:36:04;;;;;;;16.08;10.70;;;;;;;2.55;72.30;96062.31;5094475;28;20052;-75
2022/12/08 05:38:33;;;;;;;14.85;10.38;;;;;;;2.54;72.89;96066.66;5094139;28;20055;-75
2022/12/08 05:41:01;;;;;;;15.80;11.32;;;;;;;2.55;73.88;96059.72;5092870;28;20044;-75
2022/12/08 05:43:29;;;;;;;14.40;10.20;;;;;;;2.59;74.58;96056.72;5082233;28;20548;-75
2022/12/08 05:45:56;;;;;;;15.98;10.70;;;;;;;2.63;74.05;96055.47;5094077;28;20052;-76
2022/12/08 05:48:24;;;;;;;17.25;12.15;;;;;;;2.67;73.67;96061.16;5091321;28;20047;-75
2022/12/08 05:50:52;;;;;;;18.10;10.93;;;;;;;2.67;72.86;96056.00;5092881;28;20059;-75
2022/12/08 05:53:20;;;;;;;17.45;10.32;;;;;;;2.64;72.72;96057.06;5088777;28;20412;-74
2022/12/08 05:55:49;;;;;;;15.73;10.85;;;;;;;2.62;73.72;96058.19;5093112;28;20054;-75
2022/12/08 05:58:21;;;;;;;13.57;9.65;;;;;;;2.63;73.70;96054.66;5091994;28;20067;-75
2022/12/08 06:00:50;;;;;;;15.68;11.02;;;;;;;2.66;73.36;96064.66;5092493;28;20429;-75
2022/12/08 06:03:18;;;;;;;15.73;10.63;;;;;;;2.64;73.73;96051.13;5096608;28;20048;-74
2022/12/08 06:05:47;;;;;;;124.72;65.47;;;;;;;2.68;73.26;96057.59;5109420;28;20074;-76
2022/12/08 06:08:16;;;;;;;71.35;33.85;;;;;;;2.70;73.54;96060.03;5112614;28;20497;-76
2022/12/08 06:10:45;;;;;;;39.70;21.95;;;;;;;2.72;73.98;96058.94;5094213;28;20068;-76
2022/12/08 06:13:14;;;;;;;17.50;11.93;;;;;;;2.66;72.68;96057.75;5092768;28;20048;-77
2022/12/08 06:15:42;;;;;;;19.20;11.27;;;;;;;2.59;72.48;96056.72;5092898;28;20044;-77
2022/12/08 06:18:10;;;;;;;15.75;11.15;;;;;;;2.53;72.04;96059.06;5093120;28;20055;-76
2022/12/08 06:20:38;;;;;;;21.75;11.27;;;;;;;2.49;71.37;96053.38;5092477;28;20056;-76
2022/12/08 06:23:05;;;;;;;17.27;10.52;;;;;;;2.44;71.88;96048.66;5092869;28;20048;-77
2022/12/08 06:25:33;;;;;;;15.30;10.65;;;;;;;2.40;72.37;96047.34;5093700;28;20048;-76
2022/12/08 06:28:01;;;;;;;15.38;11.10;;;;;;;2.44;73.17;96050.44;5096601;28;20048;-75
2022/12/08 06:30:30;;;;;;;18.20;12.10;;;;;;;2.47;72.99;96055.28;5096885;28;20051;-76
2022/12/08 06:32:57;;;;;;;16.75;11.48;;;;;;;2.47;72.59;96050.97;5096755;28;20048;-77
2022/12/08 06:35:25;;;;;;;16.98;12.00;;;;;;;2.43;72.14;96053.97;5096516;28;20052;-76
2022/12/08 06:37:52;;;;;;;19.38;12.10;;;;;;;2.41;72.67;96045.59;5096480;28;20058;-76
2022/12/08 06:40:20;;;;;;;17.85;12.70;;;;;;;2.42;72.78;96052.34;5096131;28;20060;-77
2022/12/08 06:42:47;;;;;;;19.80;13.90;;;;;;;2.42;72.90;96060.06;5096376;28;20047;-78
2022/12/08 06:45:17;;;;;;;22.33;12.38;;;;;;;2.37;72.55;96055.34;5096280;28;20052;-76
2022/12/08 06:47:46;;;;;;;16.90;12.70;;;;;;;2.34;72.66;96060.81;5098949;28;20044;-80
2022/12/08 06:50:14;;;;;;;19.73;12.02;;;;;;;2.30;72.34;96061.25;5098657;28;20052;-77
2022/12/08 06:52:41;;;;;;;18.48;12.45;;;;;;;2.26;71.85;96065.84;5099020;28;20047;-77
2022/12/08 06:55:27;;;;;;;17.35;12.15;;;;;;;2.26;72.62;96058.94;5102811;28;20054;-77
2022/12/08 06:58:15;;;;;;;27.02;14.00;;;;;;;2.21;72.06;96056.00;5110256;28;20081;-79
2022/12/08 07:00:43;;;;;;;25.38;16.00;;;;;;;2.14;71.51;96059.25;5098937;28;20055;-78
2022/12/08 07:03:13;;;;;;;28.65;16.02;;;;;;;2.05;71.60;96059.16;5096005;28;20052;-77
2022/12/08 07:05:41;;;;;;;22.33;12.93;;;;;;;2.04;71.26;96054.97;5092694;28;20116;-78
2022/12/08 07:08:09;;;;;;;17.83;10.82;;;;;;;2.00;71.15;96061.34;5094189;28;20048;-77
2022/12/08 07:10:36;;;;;;;20.83;11.32;;;;;;;1.94;71.09;96061.09;5094325;28;20474;-77
2022/12/08 07:13:04;;;;;;;21.95;11.10;;;;;;;1.90;70.63;96060.56;5097780;22;20106;-75
2022/12/08 07:15:32;;;;;;;16.75;11.10;;;;;;;1.84;71.26;96061.97;5074885;28;20056;-75
2022/12/08 07:17:59;;;;;;;21.30;11.95;;;;;;;1.84;71.99;96056.81;5076410;28;20044;-74
2022/12/08 07:20:28;;;;;;;22.42;12.95;;;;;;;1.85;72.59;96055.84;5084368;28;20722;-75
2022/12/08 07:22:56;;;;;;;23.88;13.43;;;;;;;1.85;72.32;96058.41;5073755;28;20045;-75
2022/12/08 07:25:23;;;;;;;22.98;14.25;;;;;;;1.87;72.26;96058.28;5068468;28;20067;-75
2022/12/08 07:27:52;;;;;;;24.70;13.05;;;;;;;1.88;72.97;96064.22;5061293;28;20044;-75
2022/12/08 07:30:19;;;;;;;23.92;13.98;;;;;;;1.89;72.65;96061.53;5066129;28;20040;-75
2022/12/08 07:32:47;;;;;;;22.67;13.35;;;;;;;1.90;72.07;96058.00;5061050;28;20044;-74
2022/12/08 07:35:15;;;;;;;24.35;13.27;;;;;;;1.90;72.14;96063.13;5068273;28;20051;-76
2022/12/08 07:37:44;;;;;;;23.67;13.30;;;;;;;1.88;72.14;96061.66;5054247;28;20049;-75
2022/12/08 07:40:12;;;;;;;27.92;13.95;;;;;;;1.90;73.04;96057.19;5063496;28;20052;-75
2022/12/08 07:42:40;;;;;;;22.98;15.23;;;;;;;1.93;73.75;96057.72;5060747;28;20046;-74
2022/12/08 07:45:08;;;;;;;27.65;16.38;;;;;;;1.94;73.12;96064.47;5059132;28;20056;-75
2022/12/08 07:47:36;;;;;;;31.05;18.55;;;;;;;1.92;72.98;96063.81;5068186;28;20057;-75
2022/12/08 07:50:04;;;;;;;32.83;19.83;;;;;;;1.94;72.40;96063.69;5073544;28;20106;-75
2022/12/08 07:52:33;;;;;;;30.58;18.88;;;;;;;1.97;72.66;96060.84;5088620;28;20028;-75
2022/12/08 07:55:02;;;;;;;31.42;18.33;;;;;;;1.98;71.23;96060.69;5099091;28;20048;-75
2022/12/08 07:57:30;;;;;;;29.77;19.33;;;;;;;1.99;71.31;96067.47;5074760;28;20057;-75
2022/12/08 07:59:58;;;;;;;29.23;16.75;;;;;;;1.98;70.72;96054.72;5072081;28;20048;-75
2022/12/08 08:02:25;;;;;;;29.48;16.55;;;;;;;1.99;70.60;96058.91;5067777;28;20058;-75
2022/12/08 08:04:53;;;;;;;30.83;16.50;;;;;;;1.99;71.00;96062.31;5073518;28;20052;-75
2022/12/08 08:07:21;;;;;;;25.73;15.52;;;;;;;1.97;70.57;96051.34;5063530;28;20044;-75
2022/12/08 08:09:48;;;;;;;28.73;16.30;;;;;;;1.99;71.83;96053.75;5068903;28;20577;-75
2022/12/08 08:12:17;;;;;;;23.23;15.35;;;;;;;2.00;71.08;96052.81;5070221;28;20052;-77
2022/12/08 08:15:01;;;;;;;25.85;14.60;;;;;;;1.97;70.95;96053.94;5067365;28;20757;-75
2022/12/08 08:17:29;;;;;;;26.95;14.63;;;;;;;1.95;71.13;96060.97;5073500;28;20048;-75
2022/12/08 08:19:57;;;;;;;32.70;16.73;;;;;;;1.95;71.51;96055.81;5069422;28;20083;-75
2022/12/08 08:22:25;;;;;;;35.55;17.70;;;;;;;1.97;71.34;96061.66;5064628;28;20507;-75
2022/12/08 08:24:53;;;;;;;33.33;18.33;;;;;;;1.99;71.60;96052.03;5061863;28;20110;-76
2022/12/08 08:27:23;;;;;;;29.25;17.65;;;;;;;2.04;71.68;96049.81;5069298;28;20052;-74
2022/12/08 08:29:51;;;;;;;33.97;19.50;;;;;;;2.06;71.02;96047.13;5070710;28;20051;-75
2022/12/08 08:32:19;;;;;;;33.75;18.88;;;;;;;2.05;71.35;96056.56;5072066;28;20056;-75
2022/12/08 08:34:47;;;;;;;37.67;19.08;;;;;;;2.06;70.76;96053.06;5063566;28;20430;-76
2022/12/08 08:37:14;;;;;;;32.08;16.35;;;;;;;2.09;70.60;96064.03;5072127;28;20399;-75
2022/12/08 08:39:42;;;;;;;27.75;17.48;;;;;;;2.06;70.12;96058.22;5071615;28;20052;-76
2022/12/08 08:42:09;;;;;;;28.55;16.15;;;;;;;2.06;70.44;96062.56;5072534;28;20071;-76
2022/12/08 08:44:38;;;;;;;30.83;16.88;;;;;;;2.06;70.40;96062.56;5072893;28;20048;-76
2022/12/08 08:47:06;;;;;;;29.52;16.17;;;;;;;2.12;71.01;96061.16;5069770;28;20053;-75
2022/12/08 08:49:33;;;;;;;24.65;13.95;;;;;;;2.15;70.55;96061.69;5067991;28;20469;-75
2022/12/08 08:52:01;;;;;;;27.02;13.00;;;;;;;2.18;70.29;96065.75;5070530;28;20052;-75
2022/12/08 08:54:29;;;;;;;22.88;12.88;;;;;;;2.20;70.50;96058.69;5053858;28;20048;-75
2022/12/08 08:56:57;;;;;;;21.52;12.00;;;;;;;2.23;70.32;96056.66;5060720;28;20045;-74
2022/12/08 08:59:25;;;;;;;18.33;10.43;;;;;;;2.27;69.69;96049.44;5054062;28;20454;-75
2022/12/08 09:01:54;;;;;;;14.23;8.70;;;;;;;2.31;69.29;96061.06;5066815;28;20055;-75
2022/12/08 09:04:22;;;;;;;13.27;8.98;;;;;;;2.33;69.42;96048.88;5072424;28;20106;-76
2022/12/08 09:06:50;;;;;;;15.18;8.85;;;;;;;2.37;69.81;96045.06;5072876;28;20064;-75
2022/12/08 09:09:18;;;;;;;15.05;8.35;;;;;;;2.42;70.30;96047.19;5069721;28;20052;-75
2022/12/08 09:11:45;;;;;;;16.42;10.50;;;;;;;2.48;70.59;96047.44;5067367;28;20056;-74
2022/12/08 09:14:14;;;;;;;14.15;8.68;;;;;;;2.54;70.40;96040.09;5065045;28;20048;-75
2022/12/08 09:16:42;;;;;;;12.45;8.50;;;;;;;2.59;70.20;96049.00;5066823;28;20094;-76
2022/12/08 09:19:11;;;;;;;14.45;8.73;;;;;;;2.62;69.75;96047.88;5052448;28;20411;-75
2022/12/08 09:21:39;;;;;;;13.63;8.73;;;;;;;2.69;70.25;96041.22;5068375;28;20049;-75
2022/12/08 09:24:09;;;;;;;13.18;8.68;;;;;;;2.75;69.57;96045.75;5072858;28;20059;-75
2022/12/08 09:26:36;;;;;;;14.25;9.07;;;;;;;2.81;70.31;96034.88;5068968;28;20417;-75
2022/12/08 09:29:04;;;;;;;14.50;9.70;;;;;;;2.85;70.21;96036.19;5069606;28;20536;-75
2022/12/08 09:31:31;;;;;;;12.68;7.78;;;;;;;2.91;69.17;96036.56;5072017;28;20045;-75
2022/12/08 09:33:59;;;;;;;13.00;9.13;;;;;;;2.94;69.37;96031.13;5065399;28;20094;-75
2022/12/08 09:36:28;;;;;;;13.98;9.27;;;;;;;2.99;70.42;96039.22;5064561;28;20060;-75
2022/12/08 09:38:56;;;;;;;13.38;8.43;;;;;;;3.05;70.16;96038.63;5062352;28;20429;-75
2022/12/08 09:41:31;;;;;;;9.75;7.03;;;;;;;3.13;70.96;96040.44;5071481;28;20422;-75
2022/12/08 09:44:29;;;;;;;12.73;7.20;;;;;;;3.15;68.89;96035.94;5059790;28;20055;-75
2022/12/08 09:47:00;;;;;;;11.68;7.38;;;;;;;3.17;68.72;96037.44;5056683;28;20047;-76
2022/12/08 09:49:36;;;;;;;10.65;7.35;;;;;;;3.18;67.71;96033.91;5055076;28;20044;-76
2022/12/08 09:52:14;;;;;;;8.82;5.85;;;;;;;3.23;67.47;96025.72;5066187;28;20048;-78
2022/12/08 09:54:41;;;;;;;10.00;6.70;;;;;;;3.27;67.69;96022.69;5071561;28;20051;-76
2022/12/08 09:57:15;;;;;;;10.77;6.00;;;;;;;3.31;68.38;96020.63;5070697;28;20048;-76
2022/12/08 09:59:46;;;;;;;8.65;5.97;;;;;;;3.39;68.28;96015.53;5067025;28;20127;-75
2022/12/08 10:02:21;;;;;;;13.60;7.43;;;;;;;3.46;66.88;96013.16;5068878;28;20525;-78
2022/12/08 10:04:49;;;;;;;10.73;5.90;;;;;;;3.50;67.15;96010.13;5068638;28;20048;-76
2022/12/08 10:07:27;;;;;;;10.45;6.10;;;;;;;3.56;68.71;96005.31;5059561;28;20049;-76
2022/12/08 10:10:02;;;;;;;11.07;6.05;;;;;;;3.60;66.30;96001.47;5067246;28;20056;-76
2022/12/08 10:12:37;;;;;;;8.25;5.68;;;;;;;3.68;68.78;95994.56;5062072;28;20468;-76
2022/12/08 10:15:22;;;;;;;6.85;5.30;;;;;;;3.79;66.54;95990.13;5067514;28;20048;-75
2022/12/08 10:17:52;;;;;;;7.75;5.22;;;;;;;3.88;67.95;95986.59;5065806;28;20053;-75
2022/12/08 10:20:21;;;;;;;7.85;5.07;;;;;;;4.03;67.54;95992.00;5063162;28;20426;-75
2022/12/08 10:22:56;;;;;;;6.53;5.05;;;;;;;4.19;67.49;95981.72;5070958;28;20048;-76
2022/12/08 10:25:30;;;;;;;9.93;6.72;;;;;;;4.37;66.36;95979.00;5067853;28;20059;-75
2022/12/08 10:27:58;;;;;;;9.10;6.78;;;;;;;4.53;67.39;95976.47;5068590;28;20054;-75
2022/12/08 10:30:26;;;;;;;8.63;5.80;;;;;;;4.70;67.41;95979.88;5070806;28;20126;-76
2022/12/08 10:32:54;;;;;;;9.63;6.05;;;;;;;4.85;67.88;95972.28;5070250;28;20422;-75
2022/12/08 10:35:24;;;;;;;7.65;5.60;;;;;;;4.99;67.37;95972.63;5071307;28;20048;-76
2022/12/08 10:37:57;;;;;;;8.05;5.68;;;;;;;5.10;64.78;95969.72;5075029;28;20112;-75
2022/12/08 10:40:28;;;;;;;7.40;5.05;;;;;;;5.19;67.32;95970.50;5080355;28;20052;-76
2022/12/08 10:42:58;;;;;;;9.02;5.53;;;;;;;5.21;65.52;95966.78;5062060;28;20049;-77
2022/12/08 10:45:28;;;;;;;6.72;5.68;;;;;;;5.29;65.47;95960.78;5069072;28;20517;-77
2022/12/08 10:48:00;;;;;;;6.03;5.25;;;;;;;5.40;64.80;95969.97;5070046;28;20525;-78
2022/12/08 10:50:31;;;;;;;8.48;5.93;;;;;;;5.47;65.89;95966.59;5058344;28;20049;-77
2022/12/08 10:53:11;;;;;;;9.50;6.03;;;;;;;5.54;65.57;95966.72;5058702;28;20049;-77
2022/12/08 10:55:42;;;;;;;13.77;6.28;;;;;;;5.64;63.07;95954.41;5060388;28;20045;-77
2022/12/08 10:58:28;;;;;;;8.20;6.13;;;;;;;5.80;63.17;95955.34;5057766;28;20045;-78
2022/12/08 11:00:58;;;;;;;8.90;5.53;;;;;;;5.93;62.86;95953.00;5065753;28;20052;-77
2022/12/08 11:03:29;;;;;;;8.15;6.10;;;;;;;6.05;61.30;95945.69;5060844;28;20135;-78
2022/12/08 11:05:59;;;;;;;8.93;5.57;;;;;;;6.16;62.87;95947.91;5061084;28;20049;-78
2022/12/08 11:08:46;;;;;;;6.68;4.75;;;;;;;6.30;59.28;95931.66;5065440;28;20111;-78
2022/12/08 11:11:15;;;;;;;6.10;5.07;;;;;;;6.47;61.60;95932.38;5059835;28;20060;-77
2022/12/08 11:13:43;;;;;;;8.10;5.45;;;;;;;6.64;60.32;95922.66;5070527;28;20044;-76
2022/12/08 11:16:14;;;;;;;5.93;4.20;;;;;;;6.84;59.54;95914.41;5072431;28;20053;-76
2022/12/08 11:18:45;;;;;;;8.23;6.25;;;;;;;7.05;60.22;95913.75;5074556;28;20460;-77
2022/12/08 11:21:16;;;;;;;9.77;5.55;;;;;;;7.23;59.56;95911.63;5056949;28;20418;-76
2022/12/08 11:23:49;;;;;;;7.90;5.15;;;;;;;7.40;58.66;95907.88;5061074;28;20051;-77
2022/12/08 11:26:26;;;;;;;6.15;4.93;;;;;;;7.54;58.35;95908.06;5074704;28;20138;-78
2022/12/08 11:28:53;;;;;;;7.57;6.22;;;;;;;7.71;59.69;95904.28;5071823;28;20037;-78
2022/12/08 11:31:29;;;;;;;6.25;4.68;;;;;;;7.89;56.33;95900.50;5067111;28;20048;-78
2022/12/08 11:33:57;;;;;;;6.20;5.18;;;;;;;8.07;58.24;95908.72;5073945;28;20520;-78
2022/12/08 11:36:26;;;;;;;9.20;6.18;;;;;;;8.24;58.52;95898.88;5068801;28;20048;-78
2022/12/08 11:38:59;;;;;;;7.93;5.88;;;;;;;8.34;56.63;95903.81;5073468;28;20048;-79
2022/12/08 11:41:29;;;;;;;;;;;;;;;8.39;57.48;95898.84;5074772;28;20433;-78
2022/12/08 11:44:04;;;;;;;6.88;5.57;;;;;;;8.34;57.50;95893.41;5072123;28;19921;-77
2022/12/08 11:46:37;;;;;;;8.15;5.45;;;;;;;8.29;56.11;95893.13;5074351;28;20052;-77
2022/12/08 11:49:09;;;;;;;9.10;6.20;;;;;;;8.16;57.34;95886.03;5070637;28;20421;-78